Time;durP1;ratioP1;P1;durP2;ratioP2;P2;SDS_P1;SDS_P2;PMS_P1;PMS_P2;Temp;Humidity;BMP_temperature;BMP_pressure;BME280_temperature;BME280_humidity;BME280_pressure;Samples;Min_cycle;Max_cycle;Signal;HPM_P1;HPM_P2
2023/08/19 00:00:17;;;;;;;21.17;16.92;;;;;;;;;;5019758;28;20041;-84
2023/08/19 00:02:43;;;;;;;20.65;16.23;;;;;;;;;;5037944;28;20032;-84
2023/08/19 00:05:09;;;;;;;20.80;17.08;;;;;;;;;;5002976;28;20030;-85
2023/08/19 00:07:35;;;;;;;19.42;15.55;;;;;;;;;;5035131;28;20040;-84
2023/08/19 00:10:02;;;;;;;25.83;16.88;;;;;;;;;;5036050;28;20480;-84
2023/08/19 00:12:28;;;;;;;20.17;16.65;;;;;;;;;;5035136;28;20033;-84
2023/08/19 00:14:55;;;;;;;20.05;16.83;;;;;;;;;;5035373;28;20439;-85
2023/08/19 00:17:21;;;;;;;22.25;16.00;;;;;;;;;;5019375;28;20036;-84
2023/08/19 00:19:50;;;;;;;20.85;15.95;;;;;;;;;;5019046;28;20033;-83
2023/08/19 00:22:16;;;;;;;20.48;16.60;;;;;;;;;;5019880;28;20029;-84
2023/08/19 00:24:42;;;;;;;22.15;16.92;;;;;;;;;;5019751;28;20048;-85
2023/08/19 00:27:07;;;;;;;21.73;15.57;;;;;;;;;;5036201;28;20025;-85
2023/08/19 00:29:33;;;;;;;24.30;16.75;;;;;;;;;;5037088;28;20396;-84
2023/08/19 00:31:59;;;;;;;19.67;15.43;;;;;;;;;;5038658;28;20052;-83
2023/08/19 00:34:37;;;;;;;25.25;16.98;;;;;;;;;;5024729;28;20044;-82
2023/08/19 00:37:03;;;;;;;21.02;16.77;;;;;;;;;;5043680;28;20025;-83
2023/08/19 00:39:29;;;;;;;21.33;16.80;;;;;;;;;;5023555;28;20037;-81
2023/08/19 00:41:54;;;;;;;22.40;16.77;;;;;;;;;;5022675;28;20034;-83
2023/08/19 00:44:20;;;;;;;21.83;17.00;;;;;;;;;;5002593;28;20485;-82
2023/08/19 00:46:45;;;;;;;23.95;17.20;;;;;;;;;;5033268;28;20030;-79
2023/08/19 00:49:11;;;;;;;19.92;16.67;;;;;;;;;;5016752;28;20042;-81
2023/08/19 00:51:37;;;;;;;22.45;16.65;;;;;;;;;;5035617;28;20061;-77
2023/08/19 00:54:02;;;;;;;20.10;16.05;;;;;;;;;;5037882;28;20025;-78
2023/08/19 00:56:28;;;;;;;19.25;16.23;;;;;;;;;;5037844;28;20060;-80
2023/08/19 00:58:54;;;;;;;18.98;15.85;;;;;;;;;;5035058;28;20033;-79
2023/08/19 01:01:20;;;;;;;20.60;15.98;;;;;;;;;;5033407;28;20025;-77
2023/08/19 01:03:46;;;;;;;22.40;16.58;;;;;;;;;;4999905;28;20405;-79
2023/08/19 01:06:36;;;;;;;22.63;16.85;;;;;;;;;;5032950;28;20064;-80
2023/08/19 01:09:12;;;;;;;24.38;17.23;;;;;;;;;;5016470;28;20075;-79
2023/08/19 01:11:46;;;;;;;22.80;16.02;;;;;;;;;;5032531;28;20037;-79
2023/08/19 01:14:20;;;;;;;23.15;16.95;;;;;;;;;;5015672;28;20036;-80
2023/08/19 01:16:46;;;;;;;22.88;17.65;;;;;;;;;;5033506;28;20029;-78
2023/08/19 01:19:22;;;;;;;23.95;16.98;;;;;;;;;;5033171;28;20041;-79
2023/08/19 01:21:48;;;;;;;25.17;16.85;;;;;;;;;;5032214;28;20564;-79
2023/08/19 01:24:17;;;;;;;21.85;17.67;;;;;;;;;;5015530;28;20044;-78
2023/08/19 01:26:43;;;;;;;23.05;17.38;;;;;;;;;;5032008;28;20028;-79
2023/08/19 01:29:08;;;;;;;22.15;17.20;;;;;;;;;;5032916;28;20477;-79
2023/08/19 01:31:34;;;;;;;22.20;17.75;;;;;;;;;;5032080;28;20021;-79
2023/08/19 01:33:59;;;;;;;20.65;16.70;;;;;;;;;;5031585;28;20057;-78
2023/08/19 01:36:25;;;;;;;24.17;17.70;;;;;;;;;;5015693;28;20037;-79
2023/08/19 01:39:02;;;;;;;23.83;17.10;;;;;;;;;;5032961;28;20581;-78
2023/08/19 01:41:28;;;;;;;21.83;17.23;;;;;;;;;;5015344;28;20029;-79
2023/08/19 01:43:57;;;;;;;20.00;16.27;;;;;;;;;;5014988;28;20336;-81
2023/08/19 01:46:24;;;;;;;20.05;16.60;;;;;;;;;;5031793;28;20025;-80
2023/08/19 01:48:49;;;;;;;21.95;16.17;;;;;;;;;;5032877;28;20491;-79
2023/08/19 01:51:15;;;;;;;21.65;15.73;;;;;;;;;;5015636;28;20025;-78
2023/08/19 01:53:41;;;;;;;19.60;16.02;;;;;;;;;;5034325;28;20021;-78
2023/08/19 01:56:06;;;;;;;22.38;16.25;;;;;;;;;;5036491;28;20033;-80
2023/08/19 01:58:33;;;;;;;19.92;16.48;;;;;;;;;;5041636;28;20036;-78
2023/08/19 02:00:59;;;;;;;26.00;16.45;;;;;;;;;;5025583;28;20104;-80
2023/08/19 02:03:24;;;;;;;21.55;15.32;;;;;;;;;;5043504;28;20538;-79
2023/08/19 02:05:50;;;;;;;20.08;15.75;;;;;;;;;;5049991;28;20033;-78
2023/08/19 02:08:15;;;;;;;23.73;14.93;;;;;;;;;;5053503;28;20082;-78
2023/08/19 02:10:42;;;;;;;19.45;14.82;;;;;;;;;;5036890;28;20068;-78
2023/08/19 02:13:08;;;;;;;21.58;14.98;;;;;;;;;;5049400;28;20036;-78
2023/08/19 02:15:33;;;;;;;18.15;14.38;;;;;;;;;;5046875;28;20033;-78
2023/08/19 02:17:59;;;;;;;17.63;14.32;;;;;;;;;;5037197;28;20068;-79
2023/08/19 02:20:24;;;;;;;21.77;15.27;;;;;;;;;;5033423;28;20071;-79
2023/08/19 02:22:50;;;;;;;20.73;13.75;;;;;;;;;;5014575;28;20511;-79
2023/08/19 02:25:16;;;;;;;20.02;14.50;;;;;;;;;;5014698;28;20535;-79
2023/08/19 02:27:42;;;;;;;21.13;13.07;;;;;;;;;;5014703;28;20115;-79
2023/08/19 02:30:10;;;;;;;17.33;13.85;;;;;;;;;;5032074;28;20033;-78
2023/08/19 02:32:35;;;;;;;17.90;13.60;;;;;;;;;;5014645;28;20040;-78
2023/08/19 02:35:01;;;;;;;19.05;13.48;;;;;;;;;;5030869;28;20029;-77
2023/08/19 02:37:29;;;;;;;17.02;12.50;;;;;;;;;;5030899;28;20456;-79
2023/08/19 02:39:55;;;;;;;18.75;13.43;;;;;;;;;;5030811;28;20041;-80
2023/08/19 02:42:20;;;;;;;17.05;11.88;;;;;;;;;;5030591;28;20080;-78
2023/08/19 02:44:46;;;;;;;16.80;12.73;;;;;;;;;;5031794;28;20029;-78
2023/08/19 02:47:13;;;;;;;21.45;13.00;;;;;;;;;;5014107;28;20033;-80
2023/08/19 02:49:39;;;;;;;15.43;12.80;;;;;;;;;;5014207;28;20589;-79
2023/08/19 02:52:05;;;;;;;15.75;12.27;;;;;;;;;;5031799;28;20030;-79
2023/08/19 02:54:30;;;;;;;20.88;12.73;;;;;;;;;;5031703;28;20030;-78
2023/08/19 02:56:56;;;;;;;20.98;13.38;;;;;;;;;;5014779;28;20481;-79
2023/08/19 02:59:21;;;;;;;15.50;12.75;;;;;;;;;;4997807;28;20032;-79
2023/08/19 03:01:47;;;;;;;15.88;13.02;;;;;;;;;;5031971;28;20591;-79
2023/08/19 03:04:12;;;;;;;16.67;12.82;;;;;;;;;;5030419;28;20040;-79
2023/08/19 03:06:38;;;;;;;16.73;12.93;;;;;;;;;;5030961;28;20334;-78
2023/08/19 03:09:04;;;;;;;19.58;13.10;;;;;;;;;;5045265;23;20036;-77
2023/08/19 03:11:30;;;;;;;18.83;13.65;;;;;;;;;;4973567;28;20039;-76
2023/08/19 03:13:56;;;;;;;17.85;13.07;;;;;;;;;;4992405;28;20100;-77
2023/08/19 03:16:21;;;;;;;19.25;13.77;;;;;;;;;;4991128;28;20061;-76
2023/08/19 03:18:47;;;;;;;16.65;11.75;;;;;;;;;;4992453;28;20509;-77
2023/08/19 03:21:13;;;;;;;17.75;12.07;;;;;;;;;;4992413;28;20030;-77
2023/08/19 03:23:38;;;;;;;19.58;13.02;;;;;;;;;;4991923;28;20458;-76
2023/08/19 03:26:04;;;;;;;19.48;12.45;;;;;;;;;;4990824;28;20038;-76
2023/08/19 03:28:29;;;;;;;18.80;13.32;;;;;;;;;;5007141;28;20414;-76
2023/08/19 03:30:55;;;;;;;16.98;12.75;;;;;;;;;;4991512;28;20094;-77
2023/08/19 03:33:21;;;;;;;18.58;11.93;;;;;;;;;;5010894;28;20657;-77
2023/08/19 03:35:47;;;;;;;19.35;12.02;;;;;;;;;;4995801;28;20022;-77
2023/08/19 03:38:13;;;;;;;16.42;12.23;;;;;;;;;;5010822;28;20524;-74
2023/08/19 03:40:39;;;;;;;14.60;12.10;;;;;;;;;;4995686;28;20505;-77
2023/08/19 03:43:07;;;;;;;17.33;12.52;;;;;;;;;;4978310;28;20060;-75
2023/08/19 03:45:33;;;;;;;15.32;11.35;;;;;;;;;;4978193;28;20101;-77
2023/08/19 03:47:59;;;;;;;13.93;11.43;;;;;;;;;;4994432;28;20023;-77
2023/08/19 03:50:24;;;;;;;19.25;12.23;;;;;;;;;;4995500;28;20632;-77
2023/08/19 03:52:50;;;;;;;15.88;10.60;;;;;;;;;;4995472;28;20026;-75
2023/08/19 03:55:15;;;;;;;14.65;10.65;;;;;;;;;;4995565;28;20452;-76
2023/08/19 03:57:41;;;;;;;13.38;10.98;;;;;;;;;;5010666;28;20027;-79
2023/08/19 04:00:07;;;;;;;19.13;11.55;;;;;;;;;;5010699;28;20109;-75
2023/08/19 04:02:39;;;;;;;13.07;11.02;;;;;;;;;;4995188;28;20030;-77
2023/08/19 04:05:06;;;;;;;13.05;10.65;;;;;;;;;;4994181;28;20511;-74
2023/08/19 04:07:31;;;;;;;12.85;10.60;;;;;;;;;;4995355;28;20113;-78
2023/08/19 04:09:57;;;;;;;13.75;10.30;;;;;;;;;;4994965;28;20126;-77
2023/08/19 04:12:23;;;;;;;12.98;10.38;;;;;;;;;;4995140;28;20033;-77
2023/08/19 04:14:48;;;;;;;14.63;10.68;;;;;;;;;;4978086;28;20037;-77
2023/08/19 04:17:14;;;;;;;14.10;11.48;;;;;;;;;;5010412;28;20023;-76
2023/08/19 04:19:40;;;;;;;14.18;11.38;;;;;;;;;;4994020;28;20161;-76
2023/08/19 04:22:05;;;;;;;17.33;11.38;;;;;;;;;;4993735;28;20050;-74
2023/08/19 04:24:32;;;;;;;12.50;10.30;;;;;;;;;;5010325;28;20034;-76
2023/08/19 04:26:59;;;;;;;14.30;10.93;;;;;;;;;;5010000;28;20045;-76
2023/08/19 04:29:24;;;;;;;16.55;11.25;;;;;;;;;;4994899;28;20101;-77
2023/08/19 04:31:50;;;;;;;16.63;11.73;;;;;;;;;;5010800;28;20058;-77
2023/08/19 04:34:16;;;;;;;24.42;17.05;;;;;;;;;;4994978;28;20022;-77
2023/08/19 04:36:41;;;;;;;19.98;14.13;;;;;;;;;;4997667;28;20046;-77
2023/08/19 04:39:07;;;;;;;16.27;11.50;;;;;;;;;;4999101;28;20037;-77
2023/08/19 04:41:33;;;;;;;12.80;10.80;;;;;;;;;;5018261;28;20038;-76
2023/08/19 04:44:00;;;;;;;13.30;10.90;;;;;;;;;;4991044;28;20030;-76
2023/08/19 04:46:26;;;;;;;13.75;10.40;;;;;;;;;;5007339;28;20037;-76
2023/08/19 04:48:51;;;;;;;13.82;10.55;;;;;;;;;;5020886;28;20023;-77
2023/08/19 04:51:17;;;;;;;14.45;10.40;;;;;;;;;;5023571;28;20041;-77
2023/08/19 04:53:44;;;;;;;11.63;9.82;;;;;;;;;;4997621;28;20041;-77
2023/08/19 04:56:09;;;;;;;13.65;10.90;;;;;;;;;;4993425;28;20105;-78
2023/08/19 04:58:35;;;;;;;11.43;10.13;;;;;;;;;;4993518;28;20030;-77
2023/08/19 05:01:00;;;;;;;14.80;9.50;;;;;;;;;;4977651;28;20042;-75
2023/08/19 05:03:28;;;;;;;12.73;10.07;;;;;;;;;;4993139;28;20030;-77
2023/08/19 05:05:54;;;;;;;14.30;10.48;;;;;;;;;;5009587;28;20038;-77
2023/08/19 05:08:24;;;;;;;14.60;10.00;;;;;;;;;;5009597;28;20069;-77
2023/08/19 05:10:50;;;;;;;13.38;9.55;;;;;;;;;;5009806;28;20065;-76
2023/08/19 05:13:18;;;;;;;12.70;9.90;;;;;;;;;;4997024;28;20037;-77
2023/08/19 05:15:44;;;;;;;15.57;10.52;;;;;;;;;;5017110;28;20034;-76
2023/08/19 05:18:10;;;;;;;14.88;9.48;;;;;;;;;;4994223;28;20030;-77
2023/08/19 05:20:36;;;;;;;12.85;9.32;;;;;;;;;;5010640;28;20109;-77
2023/08/19 05:23:02;;;;;;;15.05;10.15;;;;;;;;;;4996589;28;20031;-78
2023/08/19 05:25:29;;;;;;;12.07;9.43;;;;;;;;;;4993054;28;20030;-76
2023/08/19 05:27:55;;;;;;;12.73;10.48;;;;;;;;;;4993695;28;20031;-75
2023/08/19 05:30:21;;;;;;;10.93;9.35;;;;;;;;;;4992308;28;20030;-78
2023/08/19 05:32:48;;;;;;;13.43;9.90;;;;;;;;;;4993433;28;20041;-76
2023/08/19 05:35:13;;;;;;;12.52;9.30;;;;;;;;;;4993557;28;20198;-76
2023/08/19 05:37:38;;;;;;;14.70;9.45;;;;;;;;;;5008688;28;20065;-77
2023/08/19 05:40:04;;;;;;;12.88;9.40;;;;;;;;;;4992530;28;20034;-77
2023/08/19 05:42:30;;;;;;;10.82;9.38;;;;;;;;;;4992080;28;20035;-78
2023/08/19 05:44:55;;;;;;;11.15;9.15;;;;;;;;;;4992351;28;20034;-75
2023/08/19 05:47:21;;;;;;;14.38;9.65;;;;;;;;;;5008927;28;20113;-76
2023/08/19 05:49:47;;;;;;;12.57;8.98;;;;;;;;;;5008795;28;20093;-76
2023/08/19 05:52:12;;;;;;;12.82;8.48;;;;;;;;;;4993212;28;20478;-76
2023/08/19 05:54:37;;;;;;;13.40;8.85;;;;;;;;;;4991372;28;20027;-76
2023/08/19 05:57:03;;;;;;;10.80;8.98;;;;;;;;;;4992424;28;20062;-76
2023/08/19 05:59:29;;;;;;;11.38;9.35;;;;;;;;;;4992084;28;20508;-77
2023/08/19 06:01:54;;;;;;;12.93;9.38;;;;;;;;;;4993347;28;20069;-75
2023/08/19 06:04:19;;;;;;;19.95;13.25;;;;;;;;;;4993169;28;20092;-74
2023/08/19 06:06:45;;;;;;;11.68;9.48;;;;;;;;;;4993332;28;20073;-77
2023/08/19 06:09:10;;;;;;;13.73;9.50;;;;;;;;;;4991610;28;20087;-77
2023/08/19 06:11:52;;;;;;;10.52;9.13;;;;;;;;;;5008043;28;20500;-77
2023/08/19 06:14:18;;;;;;;15.95;9.52;;;;;;;;;;4992716;28;20030;-77
2023/08/19 06:16:44;;;;;;;15.18;9.90;;;;;;;;;;4992720;28;20088;-78
2023/08/19 06:19:10;;;;;;;14.82;10.32;;;;;;;;;;4991601;28;20034;-74
2023/08/19 06:21:36;;;;;;;15.02;10.30;;;;;;;;;;4975754;28;20045;-75
2023/08/19 06:24:01;;;;;;;14.13;9.77;;;;;;;;;;4992772;28;20037;-78
2023/08/19 06:26:27;;;;;;;17.15;10.00;;;;;;;;;;4991493;28;20038;-76
2023/08/19 06:28:52;;;;;;;15.02;10.20;;;;;;;;;;5008031;28;20034;-74
2023/08/19 06:31:18;;;;;;;13.13;9.68;;;;;;;;;;4991316;28;20022;-75
2023/08/19 06:33:44;;;;;;;15.50;10.15;;;;;;;;;;4992458;28;20022;-75
2023/08/19 06:36:16;;;;;;;13.52;8.88;;;;;;;;;;5007836;28;20037;-76
2023/08/19 06:38:46;;;;;;;13.73;9.90;;;;;;;;;;4991503;28;20478;-76
2023/08/19 06:41:12;;;;;;;14.30;9.57;;;;;;;;;;4991285;28;20261;-75
2023/08/19 06:43:38;;;;;;;18.13;9.98;;;;;;;;;;4992278;28;20552;-77
2023/08/19 06:46:04;;;;;;;13.95;9.23;;;;;;;;;;4975313;28;20026;-77
2023/08/19 06:48:30;;;;;;;14.98;9.60;;;;;;;;;;4991169;28;20038;-77
2023/08/19 06:50:56;;;;;;;17.10;10.10;;;;;;;;;;4975152;28;20397;-76
2023/08/19 06:53:22;;;;;;;13.32;10.65;;;;;;;;;;4975104;28;20089;-77
2023/08/19 06:56:00;;;;;;;12.40;9.27;;;;;;;;;;4992442;28;20030;-76
2023/08/19 06:58:28;;;;;;;12.68;9.45;;;;;;;;;;4992612;28;20044;-76
2023/08/19 07:00:59;;;;;;;11.18;8.95;;;;;;;;;;4992535;28;20026;-77
2023/08/19 07:03:27;;;;;;;14.50;9.50;;;;;;;;;;4992232;28;20058;-77
2023/08/19 07:05:54;;;;;;;12.65;9.23;;;;;;;;;;4994436;28;20045;-74
2023/08/19 07:08:20;;;;;;;13.15;9.48;;;;;;;;;;4979884;28;20422;-77
2023/08/19 07:10:46;;;;;;;11.73;9.18;;;;;;;;;;4997424;28;20037;-76
2023/08/19 07:13:11;;;;;;;11.65;8.98;;;;;;;;;;4998584;28;20092;-74
2023/08/19 07:15:40;;;;;;;12.73;8.98;;;;;;;;;;5002807;28;20034;-76
2023/08/19 07:18:06;;;;;;;11.68;9.77;;;;;;;;;;4999751;28;20511;-76
2023/08/19 07:20:32;;;;;;;10.77;8.80;;;;;;;;;;4998514;28;20556;-73
2023/08/19 07:22:59;;;;;;;15.27;9.65;;;;;;;;;;4997501;28;20038;-75
2023/08/19 07:25:25;;;;;;;13.57;9.80;;;;;;;;;;4997297;28;20041;-76
2023/08/19 07:27:51;;;;;;;16.42;9.82;;;;;;;;;;4997134;28;20158;-77
2023/08/19 07:30:16;;;;;;;15.60;9.15;;;;;;;;;;4997557;28;20442;-77
2023/08/19 07:32:42;;;;;;;12.43;8.45;;;;;;;;;;4996565;28;20061;-76
2023/08/19 07:35:08;;;;;;;13.13;8.40;;;;;;;;;;4997932;28;20072;-76
2023/08/19 07:37:34;;;;;;;16.98;9.13;;;;;;;;;;4997665;28;20038;-75
2023/08/19 07:39:59;;;;;;;13.07;8.68;;;;;;;;;;4996677;28;20516;-76
2023/08/19 07:42:27;;;;;;;10.15;8.23;;;;;;;;;;4994883;28;20034;-77
2023/08/19 07:44:53;;;;;;;11.52;8.93;;;;;;;;;;4996300;28;20029;-76
2023/08/19 07:47:18;;;;;;;18.52;9.25;;;;;;;;;;4994448;28;20034;-75
2023/08/19 07:49:44;;;;;;;16.15;8.65;;;;;;;;;;4994213;28;20038;-76
2023/08/19 07:52:09;;;;;;;10.48;8.23;;;;;;;;;;4995458;28;20552;-77
2023/08/19 07:54:35;;;;;;;13.00;8.60;;;;;;;;;;4994455;28;20064;-76
2023/08/19 07:57:01;;;;;;;10.73;8.48;;;;;;;;;;4995579;28;20398;-76
2023/08/19 07:59:26;;;;;;;11.38;8.48;;;;;;;;;;4994261;28;20026;-76
2023/08/19 08:01:52;;;;;;;12.85;8.98;;;;;;;;;;4995283;28;20057;-74
2023/08/19 08:04:18;;;;;;;9.18;7.90;;;;;;;;;;4994017;28;20034;-78
2023/08/19 08:06:48;;;;;;;10.30;7.60;;;;;;;;;;4993817;28;20457;-76
2023/08/19 08:09:13;;;;;;;11.75;8.35;;;;;;;;;;5009822;28;20512;-76
2023/08/19 08:11:39;;;;;;;12.80;7.75;;;;;;;;;;4995013;28;20141;-76
2023/08/19 08:14:05;;;;;;;13.20;8.45;;;;;;;;;;4993870;28;20034;-75
2023/08/19 08:16:30;;;;;;;9.90;8.07;;;;;;;;;;4994533;28;20084;-76
2023/08/19 08:18:56;;;;;;;13.88;8.38;;;;;;;;;;4993509;28;20065;-77
2023/08/19 08:21:21;;;;;;;11.73;8.80;;;;;;;;;;4993737;28;20030;-77
2023/08/19 08:23:47;;;;;;;12.68;8.90;;;;;;;;;;4994700;28;20208;-76
2023/08/19 08:26:13;;;;;;;12.68;8.25;;;;;;;;;;4994932;28;20041;-75
2023/08/19 08:28:38;;;;;;;13.82;8.10;;;;;;;;;;4993619;28;20030;-76
2023/08/19 08:31:04;;;;;;;9.80;7.70;;;;;;;;;;4993755;28;20030;-77
2023/08/19 08:33:29;;;;;;;10.55;7.63;;;;;;;;;;4993939;28;20482;-76
2023/08/19 08:35:55;;;;;;;14.70;7.18;;;;;;;;;;4995165;28;20029;-78
2023/08/19 08:38:21;;;;;;;10.30;7.20;;;;;;;;;;4993541;28;20169;-78
2023/08/19 08:40:46;;;;;;;7.93;6.45;;;;;;;;;;4993860;28;20034;-78
2023/08/19 08:43:12;;;;;;;9.82;6.50;;;;;;;;;;4993615;28;20034;-79
2023/08/19 08:45:37;;;;;;;7.95;6.45;;;;;;;;;;4994282;28;20641;-77
2023/08/19 08:48:04;;;;;;;13.02;7.43;;;;;;;;;;4995163;28;20053;-78
2023/08/19 08:50:29;;;;;;;10.00;7.22;;;;;;;;;;4993582;28;20041;-79
2023/08/19 08:52:56;;;;;;;11.05;8.50;;;;;;;;;;5011064;28;20030;-78
2023/08/19 08:55:21;;;;;;;9.63;6.63;;;;;;;;;;4993650;28;20026;-78
2023/08/19 08:57:47;;;;;;;9.65;6.60;;;;;;;;;;4994722;28;20098;-78
2023/08/19 09:00:14;;;;;;;11.38;6.38;;;;;;;;;;4994584;28;20117;-77
2023/08/19 09:02:40;;;;;;;10.45;6.55;;;;;;;;;;4991975;28;20034;-77
2023/08/19 09:05:06;;;;;;;14.27;6.63;;;;;;;;;;4993968;28;20045;-76
2023/08/19 09:07:37;;;;;;;11.23;6.38;;;;;;;;;;5011219;28;20034;-77
2023/08/19 09:10:06;;;;;;;407.20;368.20;;;;;;;;;;5025602;23;20049;-87
2023/08/19 09:12:31;;;;;;;;;;;;;;;;;;5020035;28;20465;-82
2023/08/19 09:14:58;;;;;;;15.18;12.20;;;;;;;;;;5024801;28;20035;-82
2023/08/19 09:17:23;;;;;;;13.23;7.60;;;;;;;;;;5032534;28;20107;-83
2023/08/19 09:19:49;;;;;;;12.13;8.23;;;;;;;;;;5033056;28;20061;-84
2023/08/19 09:22:15;;;;;;;13.77;10.38;;;;;;;;;;5033901;28;20022;-82
2023/08/19 09:24:41;;;;;;;10.32;7.80;;;;;;;;;;5033185;28;20034;-82
2023/08/19 09:27:06;;;;;;;11.68;6.60;;;;;;;;;;5033407;28;20065;-82
2023/08/19 09:29:33;;;;;;;13.70;6.13;;;;;;;;;;5032938;28;20021;-82
2023/08/19 09:31:58;;;;;;;10.18;6.30;;;;;;;;;;5035058;28;20567;-80
2023/08/19 09:34:24;;;;;;;8.18;6.05;;;;;;;;;;5035389;28;20112;-79
2023/08/19 09:36:53;;;;;;;7.40;5.10;;;;;;;;;;5025927;28;20026;-79
2023/08/19 09:39:20;;;;;;;7.25;5.70;;;;;;;;;;5017927;28;20022;-78
2023/08/19 09:41:45;;;;;;;6.88;5.70;;;;;;;;;;5033847;28;20032;-79
2023/08/19 09:44:14;;;;;;;8.10;5.55;;;;;;;;;;4994008;28;20029;-78
2023/08/19 09:46:41;;;;;;;11.32;5.60;;;;;;;;;;5045532;28;20041;-78
2023/08/19 09:49:09;;;;;;;10.93;5.70;;;;;;;;;;5029105;28;20498;-77
2023/08/19 09:51:35;;;;;;;7.93;5.03;;;;;;;;;;5041255;28;20025;-80
2023/08/19 09:54:08;;;;;;;11.43;6.38;;;;;;;;;;5038352;28;20025;-80
2023/08/19 09:56:36;;;;;;;9.20;6.20;;;;;;;;;;5059921;28;20036;-83
2023/08/19 09:59:02;;;;;;;7.88;5.32;;;;;;;;;;5021163;28;20029;-82
2023/08/19 10:01:27;;;;;;;8.80;4.30;;;;;;;;;;5030621;28;20079;-81
2023/08/19 10:03:53;;;;;;;6.85;4.75;;;;;;;;;;5026207;28;20030;-81
2023/08/19 10:06:26;;;;;;;7.75;4.32;;;;;;;;;;5017583;28;20492;-79
2023/08/19 10:08:57;;;;;;;5.90;4.25;;;;;;;;;;5044283;28;20036;-79
2023/08/19 10:11:24;;;;;;;7.60;4.93;;;;;;;;;;5029243;28;20033;-80
2023/08/19 10:13:51;;;;;;;9.85;5.00;;;;;;;;;;5029124;28;20045;-80
2023/08/19 10:16:16;;;;;;;6.88;4.65;;;;;;;;;;5034093;28;20499;-83
2023/08/19 10:18:45;;;;;;;8.70;4.72;;;;;;;;;;5035077;28;20100;-81
2023/08/19 10:21:10;;;;;;;;;;;;;;;;;;5031616;28;20029;-80
2023/08/19 10:23:38;;;;;;;7.97;5.00;;;;;;;;;;5043191;28;19956;-81
2023/08/19 10:26:07;;;;;;;;;;;;;;;;;;5031169;28;20033;-83
2023/08/19 10:28:33;;;;;;;5.07;3.63;;;;;;;;;;5031436;28;19948;-83
2023/08/19 10:31:08;;;;;;;4.97;4.22;;;;;;;;;;5033936;28;20029;-83
2023/08/19 10:33:37;;;;;;;8.07;4.13;;;;;;;;;;5032678;28;20022;-83
2023/08/19 10:36:07;;;;;;;5.28;3.75;;;;;;;;;;5031542;28;20033;-84
2023/08/19 10:38:42;;;;;;;4.95;3.65;;;;;;;;;;4998326;28;20397;-82
2023/08/19 10:41:20;;;;;;;6.82;4.18;;;;;;;;;;5014862;28;20029;-81
2023/08/19 10:43:47;;;;;;;5.10;3.65;;;;;;;;;;5031845;28;20021;-82
2023/08/19 10:46:15;;;;;;;5.85;4.22;;;;;;;;;;5031456;28;20029;-81
2023/08/19 10:48:44;;;;;;;7.25;4.25;;;;;;;;;;5030990;28;20037;-82
2023/08/19 10:51:11;;;;;;;5.95;3.58;;;;;;;;;;5014981;28;20069;-82
2023/08/19 10:53:36;;;;;;;6.00;3.55;;;;;;;;;;5026567;28;20064;-82
2023/08/19 10:56:11;;;;;;;6.25;4.78;;;;;;;;;;5028253;28;20026;-81
2023/08/19 10:58:36;;;;;;;5.22;3.97;;;;;;;;;;5023423;28;20021;-78
2023/08/19 11:01:02;;;;;;;7.30;4.00;;;;;;;;;;5024977;28;20040;-80
2023/08/19 11:03:28;;;;;;;22.20;15.50;;;;;;;;;;5033459;28;20037;-87
2023/08/19 11:05:56;;;;;;;9.30;5.38;;;;;;;;;;5016811;28;20179;-82
2023/08/19 11:08:22;;;;;;;6.47;4.45;;;;;;;;;;5031667;28;20445;-81
2023/08/19 11:10:48;;;;;;;6.47;4.00;;;;;;;;;;5017221;28;20037;-82
2023/08/19 11:13:14;;;;;;;7.13;4.35;;;;;;;;;;5028791;28;20389;-83
2023/08/19 11:15:43;;;;;;;6.43;3.95;;;;;;;;;;5028330;28;20025;-82
2023/08/19 11:18:09;;;;;;;5.68;3.90;;;;;;;;;;5032649;28;20026;-82
2023/08/19 11:20:35;;;;;;;6.22;4.35;;;;;;;;;;5015204;28;20496;-82
2023/08/19 11:23:02;;;;;;;8.50;4.10;;;;;;;;;;5032058;28;20029;-82
2023/08/19 11:25:35;;;;;;;5.68;3.67;;;;;;;;;;5030020;28;20029;-82
2023/08/19 11:28:01;;;;;;;9.55;4.38;;;;;;;;;;5047739;28;20055;-83
2023/08/19 11:30:26;;;;;;;7.85;4.03;;;;;;;;;;5012905;28;20038;-81
2023/08/19 11:32:52;;;;;;;9.48;4.13;;;;;;;;;;5037222;28;20461;-82
2023/08/19 11:35:17;;;;;;;7.25;3.70;;;;;;;;;;5032689;28;20567;-81
2023/08/19 11:37:43;;;;;;;6.07;4.00;;;;;;;;;;5032936;28;20080;-81
2023/08/19 11:40:09;;;;;;;6.25;3.60;;;;;;;;;;5033664;28;20056;-82
2023/08/19 11:42:34;;;;;;;8.68;3.92;;;;;;;;;;5034019;28;20029;-81
2023/08/19 11:45:00;;;;;;;5.82;3.95;;;;;;;;;;5033272;28;20037;-81
2023/08/19 11:47:29;;;;;;;5.35;4.03;;;;;;;;;;5032246;28;20083;-79
2023/08/19 11:49:55;;;;;;;5.82;4.22;;;;;;;;;;5024594;28;20524;-80
2023/08/19 11:52:20;;;;;;;8.18;5.20;;;;;;;;;;4996450;28;20117;-80
2023/08/19 11:55:03;;;;;;;6.68;4.05;;;;;;;;;;5028751;28;20113;-79
2023/08/19 11:57:33;;;;;;;7.55;4.20;;;;;;;;;;5015090;28;20120;-79
2023/08/19 11:59:58;;;;;;;11.43;3.67;;;;;;;;;;5026427;28;20116;-80
2023/08/19 12:02:24;;;;;;;7.38;3.65;;;;;;;;;;5032126;28;20129;-79
2023/08/19 12:04:53;;;;;;;6.43;3.83;;;;;;;;;;5021970;28;20037;-79
2023/08/19 12:07:25;;;;;;;5.00;3.58;;;;;;;;;;4997317;28;20034;-79
2023/08/19 12:09:50;;;;;;;4.68;3.80;;;;;;;;;;5018369;28;20045;-80
2023/08/19 12:12:16;;;;;;;8.63;4.22;;;;;;;;;;5029067;28;20022;-78
2023/08/19 12:14:41;;;;;;;6.40;4.40;;;;;;;;;;5029926;28;20037;-80
2023/08/19 12:17:07;;;;;;;6.10;3.78;;;;;;;;;;5039844;28;20051;-83
2023/08/19 12:19:33;;;;;;;5.05;3.22;;;;;;;;;;5051572;28;20026;-83
2023/08/19 12:21:59;;;;;;;6.38;4.07;;;;;;;;;;5052131;28;20029;-83
2023/08/19 12:24:27;;;;;;;;;;;;;;;;;;5045622;28;20369;-82
2023/08/19 12:26:52;;;;;;;5.65;3.40;;;;;;;;;;5040444;28;19956;-82
2023/08/19 12:29:18;;;;;;;6.20;3.58;;;;;;;;;;5041807;28;20025;-81
2023/08/19 12:31:43;;;;;;;5.30;3.05;;;;;;;;;;5038895;28;20044;-84
2023/08/19 12:34:09;;;;;;;10.05;3.78;;;;;;;;;;5043685;28;20076;-82
2023/08/19 12:36:34;;;;;;;5.00;3.50;;;;;;;;;;5055776;28;20401;-81
2023/08/19 12:39:00;;;;;;;6.25;3.55;;;;;;;;;;5040063;28;20037;-82
2023/08/19 12:41:25;;;;;;;6.00;3.47;;;;;;;;;;5023751;28;20370;-81
2023/08/19 12:43:51;;;;;;;5.90;3.50;;;;;;;;;;5034386;28;20401;-82
2023/08/19 12:46:17;;;;;;;5.43;3.28;;;;;;;;;;5033066;28;20466;-81
2023/08/19 12:48:43;;;;;;;5.05;3.28;;;;;;;;;;5032632;28;20033;-82
2023/08/19 12:51:09;;;;;;;5.53;3.58;;;;;;;;;;5031831;28;20424;-81
2023/08/19 12:53:35;;;;;;;5.80;3.53;;;;;;;;;;5034003;28;20053;-82
2023/08/19 12:56:02;;;;;;;6.25;3.30;;;;;;;;;;5032842;28;20084;-82
2023/08/19 12:58:28;;;;;;;6.47;3.38;;;;;;;;;;5016201;28;20030;-83
2023/08/19 13:00:54;;;;;;;7.30;3.63;;;;;;;;;;5030975;28;20033;-83
2023/08/19 13:03:20;;;;;;;7.72;3.25;;;;;;;;;;5031328;28;20052;-82
2023/08/19 13:05:46;;;;;;;4.82;3.70;;;;;;;;;;5030965;28;20515;-81
2023/08/19 13:08:11;;;;;;;6.18;3.50;;;;;;;;;;5034357;28;20021;-82
2023/08/19 13:10:37;;;;;;;7.30;3.70;;;;;;;;;;5031740;28;20029;-85
2023/08/19 13:13:03;;;;;;;7.47;3.45;;;;;;;;;;5015784;28;20128;-82
2023/08/19 13:15:29;;;;;;;5.63;3.33;;;;;;;;;;5031970;28;20029;-82
2023/08/19 13:17:55;;;;;;;708.67;640.88;;;;;;;;;;5026897;28;20084;-86
2023/08/19 13:20:22;;;;;;;17.10;12.57;;;;;;;;;;5028582;28;20083;-85
2023/08/19 13:22:49;;;;;;;17.13;12.63;;;;;;;;;;5032690;28;20033;-85
2023/08/19 13:25:14;;;;;;;30.15;20.83;;;;;;;;;;5034225;28;20105;-84
2023/08/19 13:27:41;;;;;;;21.13;17.50;;;;;;;;;;5030805;28;20477;-86
2023/08/19 13:30:07;;;;;;;22.50;18.17;;;;;;;;;;5030813;28;20168;-84
2023/08/19 13:32:33;;;;;;;14.10;10.82;;;;;;;;;;5026015;28;20061;-84
2023/08/19 13:34:58;;;;;;;8.75;5.93;;;;;;;;;;5008957;28;20122;-85
2023/08/19 13:37:24;;;;;;;14.93;10.07;;;;;;;;;;5010473;28;20462;-84
2023/08/19 13:39:49;;;;;;;12.93;11.15;;;;;;;;;;5020585;28;20034;-83
2023/08/19 13:42:15;;;;;;;14.48;10.80;;;;;;;;;;5029925;28;20029;-84
2023/08/19 13:44:40;;;;;;;19.42;13.70;;;;;;;;;;5023124;28;20069;-85
2023/08/19 13:47:06;;;;;;;9.70;8.25;;;;;;;;;;5029601;28;20064;-84
2023/08/19 13:49:32;;;;;;;14.52;9.10;;;;;;;;;;5014967;28;20026;-82
2023/08/19 13:51:57;;;;;;;14.40;11.30;;;;;;;;;;5032670;28;20030;-85
2023/08/19 13:54:23;;;;;;;7.25;3.58;;;;;;;;;;5031505;28;20109;-79
2023/08/19 13:56:50;;;;;;;5.85;3.35;;;;;;;;;;5006359;28;20116;-81
2023/08/19 13:59:16;;;;;;;7.15;3.20;;;;;;;;;;5032376;28;20025;-81
2023/08/19 14:01:42;;;;;;;5.18;3.30;;;;;;;;;;5032958;28;20037;-81
2023/08/19 14:04:08;;;;;;;5.57;3.15;;;;;;;;;;5032022;28;20048;-82
2023/08/19 14:06:34;;;;;;;6.47;3.23;;;;;;;;;;5029625;28;20040;-81
2023/08/19 14:08:59;;;;;;;7.55;3.13;;;;;;;;;;5009131;28;20029;-82
2023/08/19 14:11:25;;;;;;;6.57;2.85;;;;;;;;;;5032753;28;20030;-80
2023/08/19 14:13:51;;;;;;;10.65;3.20;;;;;;;;;;5034283;28;20382;-81
2023/08/19 14:16:17;;;;;;;5.95;3.10;;;;;;;;;;5031686;28;20456;-82
2023/08/19 14:18:45;;;;;;;4.65;2.80;;;;;;;;;;5024577;28;20101;-79
2023/08/19 14:21:11;;;;;;;4.18;2.70;;;;;;;;;;5030961;28;20053;-79
2023/08/19 14:23:37;;;;;;;7.32;2.75;;;;;;;;;;5029095;28;20040;-80